Time;durP1;ratioP1;P1;durP2;ratioP2;P2;SDS_P1;SDS_P2;PMS_P1;PMS_P2;Temp;Humidity;BMP_temperature;BMP_pressure;BME280_temperature;BME280_humidity;BME280_pressure;Samples;Min_cycle;Max_cycle;Signal;HPM_P1;HPM_P2
2023/05/28 00:00:41;;;;;;;7.00;3.60;;;;;;;15.00;49.85;99180.38;5153828;27;43740;-78
2023/05/28 00:03:08;;;;;;;5.17;3.10;;;;;;;14.93;49.82;99176.47;5135456;27;41237;-78
2023/05/28 00:05:36;;;;;;;4.33;2.90;;;;;;;14.89;50.05;99172.34;5135849;27;39886;-79
2023/05/28 00:08:04;;;;;;;5.13;3.10;;;;;;;14.82;50.21;99171.09;5135515;27;40787;-77
2023/05/28 00:10:33;;;;;;;5.43;3.17;;;;;;;14.80;49.91;99171.22;5135608;27;41937;-77
2023/05/28 00:13:01;;;;;;;3.80;2.77;;;;;;;14.75;49.81;99170.69;5135212;27;40597;-78
2023/05/28 00:15:29;;;;;;;6.73;3.73;;;;;;;14.69;50.45;99171.16;5151365;27;40928;-79
2023/05/28 00:17:57;;;;;;;4.80;3.20;;;;;;;14.63;49.99;99177.78;5154347;27;41924;-79
2023/05/28 00:20:25;;;;;;;5.50;3.27;;;;;;;14.59;50.73;99162.97;5136023;27;42218;-80
2023/05/28 00:22:53;;;;;;;5.03;3.47;;;;;;;14.55;50.61;99163.34;5154011;27;41971;-78
2023/05/28 00:25:20;;;;;;;7.37;3.73;;;;;;;14.50;51.29;99166.34;5134239;27;38926;-80
2023/05/28 00:27:49;;;;;;;6.03;3.97;;;;;;;14.45;51.38;99157.84;5117396;27;40920;-80
2023/05/28 00:30:17;;;;;;;6.90;3.90;;;;;;;14.26;51.05;99125.47;5134637;27;44045;-77
2023/05/28 00:32:46;;;;;;;7.30;3.67;;;;;;;14.38;51.55;99160.06;5117470;27;40973;-77
2023/05/28 00:35:13;;;;;;;5.77;3.57;;;;;;;14.26;51.08;99141.47;5134784;27;39647;-76
2023/05/28 00:37:41;;;;;;;4.93;3.40;;;;;;;14.33;51.30;99150.72;5134681;27;42127;-77
2023/05/28 00:40:09;;;;;;;4.53;3.07;;;;;;;14.25;51.63;99150.41;5134632;27;42864;-77
2023/05/28 00:42:37;;;;;;;4.03;3.30;;;;;;;14.27;51.74;99159.13;5117322;27;41284;-77
2023/05/28 00:45:08;;;;;;;5.77;3.30;;;;;;;14.25;51.65;99151.25;5152763;27;40932;-78
2023/05/28 00:47:36;;;;;;;4.67;2.50;;;;;;;14.23;51.57;99153.19;5116913;27;40649;-78
2023/05/28 00:50:07;;;;;;;3.83;2.67;;;;;;;14.22;51.36;99155.94;5117269;27;43116;-77
2023/05/28 00:52:35;;;;;;;4.37;2.73;;;;;;;14.10;51.14;99133.72;5116822;27;41376;-79
2023/05/28 00:55:03;;;;;;;5.37;3.00;;;;;;;14.10;51.70;99132.88;5134843;27;39980;-78
2023/05/28 00:57:31;;;;;;;3.93;3.20;;;;;;;14.16;51.29;99156.41;5118036;27;41928;-78
2023/05/28 01:00:05;;;;;;;4.10;2.80;;;;;;;14.00;51.63;99130.88;5135491;27;42861;-77
2023/05/28 01:02:35;;;;;;;5.07;3.00;;;;;;;13.97;52.01;99131.09;5135006;27;41321;-78
2023/05/28 01:05:03;;;;;;;4.93;3.10;;;;;;;14.05;51.76;99151.00;5117625;27;39124;-77
2023/05/28 01:07:32;;;;;;;5.03;3.10;;;;;;;14.01;51.69;99153.88;5117306;27;40831;-77
2023/05/28 01:10:00;;;;;;;4.33;2.97;;;;;;;13.96;52.02;99145.41;5153324;27;43092;-77
2023/05/28 01:12:28;;;;;;;4.83;2.87;;;;;;;13.92;52.16;99143.03;5137483;27;42426;-77
2023/05/28 01:14:57;;;;;;;5.77;3.13;;;;;;;13.87;51.87;99142.50;5121352;27;39173;-79
2023/05/28 01:17:25;;;;;;;4.17;2.80;;;;;;;13.83;51.61;99143.72;5138846;27;41564;-79
2023/05/28 01:19:55;;;;;;;3.47;2.73;;;;;;;13.67;51.61;99125.31;5121342;27;41711;-78
2023/05/28 01:22:29;;;;;;;4.67;2.70;;;;;;;13.72;51.91;99143.63;5138432;27;42039;-77
2023/05/28 01:25:00;;;;;;;5.67;3.90;;;;;;;13.69;52.00;99142.03;5133487;27;39925;-78
2023/05/28 01:27:28;;;;;;;5.73;2.53;;;;;;;13.64;51.82;99149.47;5134902;27;41735;-79
2023/05/28 01:29:56;;;;;;;4.30;2.93;;;;;;;13.61;52.18;99133.72;5137566;27;42989;-79
2023/05/28 01:32:24;;;;;;;3.77;2.83;;;;;;;13.59;52.16;99138.31;5137459;27;42329;-79
2023/05/28 01:34:52;;;;;;;5.17;3.27;;;;;;;13.54;52.28;99138.63;5137447;27;40040;-79
2023/05/28 01:37:21;;;;;;;4.37;3.87;;;;;;;13.51;52.78;99138.84;5119690;27;40715;-78
2023/05/28 01:39:52;;;;;;;6.30;3.63;;;;;;;13.45;52.63;99130.44;5137202;27;41885;-77
2023/05/28 01:42:22;;;;;;;7.23;3.60;;;;;;;13.44;53.06;99126.94;5134802;27;42143;-79
2023/05/28 01:44:51;;;;;;;4.80;3.40;;;;;;;13.42;53.09;99128.00;5120052;27;39019;-78
2023/05/28 01:47:19;;;;;;;4.90;3.47;;;;;;;13.39;53.19;99129.06;5136798;27;42700;-79
2023/05/28 01:49:47;;;;;;;4.80;3.17;;;;;;;13.37;53.31;99132.78;5119931;27;41930;-78
2023/05/28 01:52:15;;;;;;;6.83;3.70;;;;;;;13.33;52.81;99128.63;5136938;27;42137;-79
2023/05/28 01:54:43;;;;;;;5.40;3.37;;;;;;;13.30;53.02;99119.06;5120543;27;38430;-79
2023/05/28 01:57:11;;;;;;;4.57;2.93;;;;;;;13.11;53.50;99092.84;5120357;27;41052;-78
2023/05/28 01:59:41;;;;;;;4.80;2.93;;;;;;;13.24;53.75;99119.47;5138087;27;42776;-79
2023/05/28 02:02:09;;;;;;;4.07;2.80;;;;;;;13.22;53.64;99122.25;5120354;27;40749;-78
2023/05/28 02:04:37;;;;;;;4.53;3.37;;;;;;;13.18;53.52;99126.06;5120459;27;40160;-80
2023/05/28 02:07:06;;;;;;;6.83;2.77;;;;;;;13.14;54.14;99116.59;5118861;27;40623;-80
2023/05/28 02:09:34;;;;;;;5.23;3.17;;;;;;;13.03;54.21;99097.84;5119537;27;42818;-79
2023/05/28 02:12:02;;;;;;;3.97;2.73;;;;;;;13.02;54.56;99104.13;5136355;27;41187;-78
2023/05/28 02:14:31;;;;;;;5.80;3.60;;;;;;;12.82;54.16;99076.25;5119186;27;39008;-77
2023/05/28 02:17:00;;;;;;;5.13;3.30;;;;;;;12.89;54.55;99095.28;5119067;27;41832;-78
2023/05/28 02:19:28;;;;;;;5.27;3.70;;;;;;;12.98;54.57;99118.59;5136666;27;43084;-77
2023/05/28 02:21:57;;;;;;;5.07;3.10;;;;;;;12.95;54.82;99124.09;5154495;27;43209;-78
2023/05/28 02:24:26;;;;;;;4.90;3.07;;;;;;;12.93;54.58;99118.03;5119421;27;39043;-78
2023/05/28 02:26:55;;;;;;;4.53;3.00;;;;;;;12.90;54.70;99112.94;5118955;27;40876;-77
2023/05/28 02:29:23;;;;;;;4.13;3.00;;;;;;;12.87;54.75;99111.31;5119131;27;41767;-78
2023/05/28 02:31:52;;;;;;;6.63;3.57;;;;;;;12.84;54.84;99110.69;5135988;27;42418;-78
2023/05/28 02:34:22;;;;;;;5.33;3.70;;;;;;;12.82;54.86;99107.28;5119085;27;39052;-78
2023/05/28 02:36:52;;;;;;;6.60;3.80;;;;;;;12.79;55.78;99108.34;5136298;27;41565;-78
2023/05/28 02:39:20;;;;;;;6.50;4.03;;;;;;;12.77;55.96;99101.41;5118606;27;41238;-78
2023/05/28 02:41:48;;;;;;;6.10;3.80;;;;;;;12.76;55.56;99105.03;5118731;27;41336;-78
2023/05/28 02:44:16;;;;;;;5.93;3.83;;;;;;;12.73;55.87;99108.78;5118986;27;38877;-78
2023/05/28 02:46:43;;;;;;;4.47;3.10;;;;;;;12.72;56.60;99106.22;5119322;27;40759;-78
2023/05/28 02:49:11;;;;;;;4.83;3.10;;;;;;;12.68;56.11;99099.38;5135944;27;43736;-79
2023/05/28 02:51:40;;;;;;;4.70;3.13;;;;;;;12.69;56.11;99101.09;5118898;27;41331;-78
2023/05/28 02:54:23;;;;;;;4.13;2.90;;;;;;;12.67;56.22;99101.19;5133271;27;40153;-78
2023/05/28 02:56:52;;;;;;;3.77;2.83;;;;;;;12.64;56.31;99108.50;5119446;27;40220;-78
2023/05/28 02:59:20;;;;;;;4.93;3.17;;;;;;;12.59;56.13;99106.19;5119620;27;42974;-79
2023/05/28 03:01:48;;;;;;;3.37;2.80;;;;;;;12.59;56.73;99101.72;5119534;27;41315;-78
2023/05/28 03:04:16;;;;;;;6.73;3.30;;;;;;;12.56;56.36;99112.53;5136917;27;39612;-77
2023/05/28 03:06:46;;;;;;;4.83;3.33;;;;;;;12.54;56.38;99103.81;5119341;27;40126;-78
2023/05/28 03:09:14;;;;;;;4.70;3.20;;;;;;;12.26;56.97;99061.44;5119243;27;41898;-78
2023/05/28 03:11:43;;;;;;;5.80;3.50;;;;;;;12.50;57.02;99112.06;5119499;27;41167;-79
2023/05/28 03:14:12;;;;;;;5.37;3.17;;;;;;;12.44;56.57;99094.75;5118839;27;38874;-78
2023/05/28 03:16:43;;;;;;;4.87;2.80;;;;;;;12.29;56.90;99076.31;5136659;27;42670;-77
2023/05/28 03:19:22;;;;;;;4.10;3.17;;;;;;;12.45;57.08;99115.06;5133624;27;43842;-78
2023/05/28 03:21:51;;;;;;;5.10;3.13;;;;;;;12.44;57.69;99101.88;5136306;27;42972;-77
2023/05/28 03:24:21;;;;;;;6.40;3.93;;;;;;;12.40;57.34;99101.22;5132473;27;41030;-79
2023/05/28 03:26:53;;;;;;;6.33;3.80;;;;;;;12.43;57.60;99103.69;5132456;27;41607;-78
2023/05/28 03:29:24;;;;;;;4.60;3.57;;;;;;;12.41;57.46;99097.63;5118276;27;42742;-78
2023/05/28 03:32:15;;;;;;;5.00;3.47;;;;;;;12.40;57.83;99105.69;5118090;27;41175;-78
2023/05/28 03:34:43;;;;;;;5.57;3.60;;;;;;;12.24;57.73;99085.44;5117575;27;39203;-77
2023/05/28 03:37:12;;;;;;;5.73;3.37;;;;;;;12.37;57.50;99111.19;5117776;27;41558;-79
2023/05/28 03:39:41;;;;;;;6.43;3.67;;;;;;;12.25;56.95;99094.25;5135616;27;42408;-79
2023/05/28 03:42:10;;;;;;;3.57;2.80;;;;;;;12.36;56.63;99115.69;5134994;27;43215;-78
2023/05/28 03:44:38;;;;;;;5.47;3.73;;;;;;;12.32;56.38;99108.00;5118249;27;39044;-78
2023/05/28 03:47:06;;;;;;;4.00;3.13;;;;;;;12.32;56.72;99108.84;5117630;27;40891;-78
2023/05/28 03:49:34;;;;;;;5.23;2.93;;;;;;;12.32;56.71;99103.53;5117998;27;42003;-79
2023/05/28 03:52:02;;;;;;;5.27;3.17;;;;;;;12.23;56.70;99085.56;5135124;27;43108;-78
2023/05/28 03:54:38;;;;;;;5.13;3.37;;;;;;;12.22;56.84;99091.81;5118268;27;38463;-77
2023/05/28 03:57:06;;;;;;;5.03;3.40;;;;;;;12.25;57.01;99088.94;5136101;27;40539;-78
2023/05/28 03:59:36;;;;;;;4.87;3.40;;;;;;;12.30;56.62;99094.81;5118568;27;41776;-81
2023/05/28 04:02:04;;;;;;;2.90;2.60;;;;;;;12.42;56.44;99109.09;5118764;27;42526;-85
2023/05/28 04:04:32;;;;;;;3.93;2.97;;;;;;;12.44;56.41;99101.88;5119163;27;38980;-82
2023/05/28 04:07:00;;;;;;;5.17;3.03;;;;;;;12.34;57.17;99091.00;5118578;27;40743;-82
2023/05/28 04:09:28;;;;;;;6.03;3.13;;;;;;;12.46;56.84;99111.44;5118825;27;42734;-82
2023/05/28 04:11:57;;;;;;;4.20;3.10;;;;;;;12.50;56.65;99106.75;5135843;27;43358;-78
2023/05/28 04:14:25;;;;;;;4.87;3.20;;;;;;;12.52;56.70;99105.72;5135833;27;39761;-83
2023/05/28 04:16:53;;;;;;;3.47;2.80;;;;;;;12.59;56.58;99112.34;5118435;27;40607;-80
2023/05/28 04:19:21;;;;;;;5.10;3.43;;;;;;;12.67;56.42;99097.69;5135876;27;43544;-80
2023/05/28 04:21:49;;;;;;;5.03;3.13;;;;;;;12.70;55.85;99108.97;5136164;27;43211;-79
2023/05/28 04:24:16;;;;;;;5.00;3.20;;;;;;;12.77;56.36;99110.25;5117500;27;38854;-80
2023/05/28 04:26:44;;;;;;;2.97;2.53;;;;;;;12.82;55.95;99112.59;5117029;27;41884;-83
2023/05/28 04:29:15;;;;;;;3.37;2.83;;;;;;;12.87;56.88;99097.19;5117383;27;41694;-79
2023/05/28 04:31:43;;;;;;;6.10;3.90;;;;;;;12.94;57.24;99095.81;5117795;27;42104;-81
2023/05/28 04:34:11;;;;;;;5.70;4.00;;;;;;;13.03;56.45;99104.97;5117766;27;39920;-80
2023/05/28 04:36:39;;;;;;;6.90;3.83;;;;;;;13.05;56.97;99095.09;5134609;27;42106;-78
2023/05/28 04:39:08;;;;;;;6.30;3.80;;;;;;;13.18;56.78;99115.44;5117317;27;42152;-83
2023/05/28 04:41:35;;;;;;;4.67;3.40;;;;;;;13.27;56.77;99111.28;5134537;27;42933;-82
2023/05/28 04:44:03;;;;;;;5.77;4.03;;;;;;;13.37;56.38;99114.16;5134679;27;39935;-80
2023/05/28 04:46:33;;;;;;;4.50;3.27;;;;;;;13.45;56.32;99111.81;5137327;27;41846;-83
2023/05/28 04:49:01;;;;;;;7.57;3.67;;;;;;;13.55;56.01;99108.41;5120650;27;41797;-83
2023/05/28 04:51:28;;;;;;;5.10;3.30;;;;;;;13.63;56.20;99102.53;5138290;27;42952;-82
2023/05/28 04:53:56;;;;;;;6.60;3.50;;;;;;;13.74;56.26;99102.59;5138399;27;40094;-80
2023/05/28 04:56:24;;;;;;;4.60;3.17;;;;;;;13.84;55.98;99111.66;5121749;27;40749;-79
2023/05/28 04:58:52;;;;;;;5.83;3.53;;;;;;;13.91;56.30;99110.25;5121889;27;41936;-81
2023/05/28 05:01:19;;;;;;;5.50;3.40;;;;;;;13.91;56.23;99104.91;5121967;27;41075;-82
2023/05/28 05:03:49;;;;;;;4.67;3.20;;;;;;;14.07;55.55;99118.00;5138949;27;40645;-83
2023/05/28 05:06:17;;;;;;;3.87;2.83;;;;;;;14.16;55.29;99124.44;5121618;27;40937;-84
2023/05/28 05:08:45;;;;;;;5.03;3.17;;;;;;;14.00;55.03;99087.41;5121389;27;41836;-79
2023/05/28 05:11:13;;;;;;;5.00;3.30;;;;;;;14.31;54.71;99126.00;5139120;27;43026;-80
2023/05/28 05:13:40;;;;;;;4.77;3.13;;;;;;;14.39;54.51;99128.94;5145096;27;40798;-80
2023/05/28 05:16:08;;;;;;;3.67;3.00;;;;;;;14.49;54.78;99127.31;5127488;27;40835;-76
2023/05/28 05:18:36;;;;;;;5.40;3.37;;;;;;;14.51;54.40;99119.22;5128395;27;42241;-80
2023/05/28 05:21:06;;;;;;;4.30;3.33;;;;;;;14.71;54.46;99135.41;5125739;27;42657;-78
2023/05/28 05:23:34;;;;;;;6.17;3.40;;;;;;;14.83;54.00;99131.00;5140373;27;39595;-78
2023/05/28 05:26:02;;;;;;;4.53;3.37;;;;;;;14.96;54.41;99129.06;5121140;27;40833;-79
2023/05/28 05:28:29;;;;;;;4.20;2.97;;;;;;;15.08;54.10;99132.66;5122356;27;43122;-77
2023/05/28 05:30:57;;;;;;;4.67;3.20;;;;;;;15.04;53.77;99112.50;5139953;27;42253;-80
2023/05/28 05:33:25;;;;;;;6.37;3.30;;;;;;;15.21;53.55;99122.72;5120091;27;38389;-78
2023/05/28 05:36:20;;;;;;;4.30;3.27;;;;;;;15.46;53.72;99141.19;5132499;27;40650;-78
2023/05/28 05:39:03;;;;;;;6.70;3.70;;;;;;;15.56;53.56;99125.38;5137247;27;42741;-80
2023/05/28 05:41:58;;;;;;;5.23;3.30;;;;;;;15.69;53.74;99130.59;5119697;27;41426;-83
2023/05/28 05:44:30;;;;;;;4.67;3.20;;;;;;;15.85;53.27;99141.72;5120808;27;38996;-83
2023/05/28 05:46:59;;;;;;;4.60;3.13;;;;;;;15.98;53.41;99145.13;5119604;27;41908;-82
2023/05/28 05:49:27;;;;;;;7.83;3.97;;;;;;;16.13;53.02;99149.25;5120009;27;41709;-82
2023/05/28 05:51:56;;;;;;;5.33;3.60;;;;;;;16.23;53.03;99141.31;5119341;27;40486;-82
2023/05/28 05:54:27;;;;;;;3.57;3.07;;;;;;;16.32;53.38;99132.53;5120116;27;38856;-80
2023/05/28 05:56:55;;;;;;;5.17;3.13;;;;;;;16.61;53.06;99156.91;5133893;27;42710;-78
2023/05/28 05:59:23;;;;;;;4.27;3.17;;;;;;;16.74;52.70;99146.91;5120676;27;41969;-79
2023/05/28 06:01:52;;;;;;;5.57;3.90;;;;;;;16.87;51.99;99163.66;5137638;27;43123;-80
2023/05/28 06:04:19;;;;;;;5.00;3.30;;;;;;;16.95;51.79;99146.94;5120763;27;39048;-81
2023/05/28 06:07:16;;;;;;;4.37;3.27;;;;;;;17.21;51.67;99152.78;5133832;27;40716;-80
2023/05/28 06:10:02;;;;;;;7.43;3.90;;;;;;;17.30;51.24;99148.47;5138107;27;42901;-82
2023/05/28 06:12:34;;;;;;;4.70;3.40;;;;;;;17.50;51.25;99161.84;5120652;27;42172;-79
2023/05/28 06:15:03;;;;;;;5.00;3.07;;;;;;;17.65;50.98;99165.06;5136458;27;38895;-80
2023/05/28 06:17:32;;;;;;;6.20;3.90;;;;;;;17.74;50.52;99158.06;5135840;27;41684;-81
2023/05/28 06:20:00;;;;;;;4.80;3.20;;;;;;;17.96;50.37;99155.19;5119381;27;43106;-81
2023/05/28 06:22:32;;;;;;;6.33;3.80;;;;;;;18.13;50.91;99154.56;5119312;27;41205;-82
2023/05/28 06:25:01;;;;;;;5.33;3.30;;;;;;;18.31;50.41;99152.91;5119295;27;39016;-81
2023/05/28 06:27:29;;;;;;;5.90;3.70;;;;;;;18.55;49.70;99160.56;5136515;27;41599;-81
2023/05/28 06:29:56;;;;;;;4.13;3.43;;;;;;;18.73;49.74;99150.03;5119297;27;42059;-81
2023/05/28 06:32:24;;;;;;;5.77;3.43;;;;;;;18.86;48.15;99164.03;5136178;27;42328;-78
2023/05/28 06:34:51;;;;;;;5.23;3.70;;;;;;;19.01;47.90;99162.63;5136620;27;40745;-78
2023/05/28 06:37:19;;;;;;;7.87;3.27;;;;;;;19.20;47.00;99166.28;5118838;27;40215;-79
2023/05/28 06:39:48;;;;;;;3.87;2.97;;;;;;;19.38;46.92;99169.94;5136779;27;43679;-80
2023/05/28 06:42:16;;;;;;;6.83;4.07;;;;;;;19.19;46.18;99124.31;5121932;27;40785;-79
2023/05/28 06:45:00;;;;;;;6.77;3.80;;;;;;;19.68;46.35;99171.59;5120896;27;38807;-82
2023/05/28 06:47:28;;;;;;;5.57;3.43;;;;;;;19.83;45.62;99180.03;5136358;27;41953;-79
2023/05/28 06:49:56;;;;;;;7.00;3.87;;;;;;;19.88;46.07;99161.63;5118738;27;41682;-82
2023/05/28 06:52:27;;;;;;;4.40;3.27;;;;;;;19.80;45.80;99121.19;5118452;27;41160;-81
2023/05/28 06:54:56;;;;;;;7.77;4.10;;;;;;;20.22;43.23;99186.97;5135010;27;40871;-83
2023/05/28 06:57:25;;;;;;;5.70;3.90;;;;;;;20.40;43.26;99195.94;5119654;27;42122;-78
2023/05/28 06:59:52;;;;;;;5.77;3.63;;;;;;;20.58;43.46;99193.31;5155304;27;43192;-78
2023/05/28 07:02:39;;;;;;;6.40;4.03;;;;;;;20.83;43.80;99197.09;5136482;27;41615;-78
2023/05/28 07:05:22;;;;;;;7.10;4.10;;;;;;;20.91;43.33;99175.66;5119724;27;38926;-77
2023/05/28 07:07:50;;;;;;;5.33;3.60;;;;;;;21.20;42.82;99204.22;5118919;27;40757;-80
2023/05/28 07:10:19;;;;;;;7.93;3.93;;;;;;;21.21;42.53;99190.59;5135723;27;42858;-80
2023/05/28 07:12:47;;;;;;;6.50;3.67;;;;;;;21.50;43.19;99195.75;5119286;27;41083;-81
2023/05/28 07:15:17;;;;;;;5.33;3.90;;;;;;;21.59;42.48;99189.41;5136315;27;41122;-78
2023/05/28 07:17:45;;;;;;;8.57;4.07;;;;;;;21.81;43.13;99193.41;5136138;27;41767;-82
2023/05/28 07:20:13;;;;;;;5.40;4.10;;;;;;;22.05;42.70;99211.63;5119894;27;42302;-78
2023/05/28 07:22:57;;;;;;;7.83;4.20;;;;;;;22.34;40.70;99228.31;5133824;27;43024;-76
2023/05/28 07:25:27;;;;;;;6.57;4.00;;;;;;;22.64;39.67;99228.75;5135859;27;40014;-77
2023/05/28 07:27:55;;;;;;;7.33;4.40;;;;;;;23.26;39.26;99233.66;5117567;27;40814;-77
2023/05/28 07:30:33;;;;;;;6.63;3.70;;;;;;;24.11;37.82;99239.53;5132598;27;43506;-81
2023/05/28 07:33:05;;;;;;;5.67;3.77;;;;;;;25.03;35.85;99246.19;5117429;27;41402;-83
2023/05/28 07:35:33;;;;;;;6.93;4.17;;;;;;;25.75;34.54;99250.25;5118321;27;39122;-77
2023/05/28 07:38:02;;;;;;;6.17;3.67;;;;;;;26.32;33.74;99257.03;5134996;27;41753;-79
2023/05/28 07:40:32;;;;;;;10.20;4.43;;;;;;;26.59;33.67;99240.03;5135820;27;42880;-77
2023/05/28 07:43:10;;;;;;;5.67;3.40;;;;;;;26.72;33.40;99253.78;5134135;27;42288;-79
2023/05/28 07:45:38;;;;;;;7.10;4.17;;;;;;;26.56;33.97;99253.19;5135404;27;40948;-83
2023/05/28 07:48:06;;;;;;;6.87;4.10;;;;;;;26.27;33.80;99251.25;5134967;27;42480;-80
2023/05/28 07:50:49;;;;;;;6.87;4.10;;;;;;;26.51;32.90;99261.03;5132232;27;43690;-77
2023/05/28 07:53:34;;;;;;;6.87;3.83;;;;;;;27.79;32.14;99253.97;5134323;27;42068;-81
2023/05/28 07:56:05;;;;;;;5.67;3.93;;;;;;;29.31;30.39;99263.88;5136399;27;39310;-82
2023/05/28 07:58:33;;;;;;;6.10;4.00;;;;;;;30.50;28.40;99277.59;5118354;27;42050;-85
2023/05/28 08:01:01;;;;;;;4.80;3.70;;;;;;;31.22;28.13;99273.81;5136257;27;42697;-83
2023/05/28 08:03:29;;;;;;;8.53;3.97;;;;;;;31.35;27.36;99284.69;5118077;27;42141;-83
2023/05/28 08:06:00;;;;;;;6.60;4.10;;;;;;;31.16;27.38;99282.91;5119132;27;38962;-79
2023/05/28 08:08:28;;;;;;;5.10;3.90;;;;;;;31.37;27.32;99267.00;5135524;27;41946;-86
2023/05/28 08:10:56;;;;;;;7.20;4.10;;;;;;;31.93;26.61;99279.03;5135629;27;43470;-86
2023/05/28 08:13:25;;;;;;;6.80;4.00;;;;;;;32.46;24.15;99279.44;5115528;27;42294;-83
2023/05/28 08:15:53;;;;;;;6.40;3.97;;;;;;;33.39;24.52;99282.75;5117637;27;39065;-84
2023/05/28 08:18:23;;;;;;;6.93;4.50;;;;;;;34.29;24.18;99281.81;5134275;27;42256;-79
2023/05/28 08:20:51;;;;;;;8.03;4.33;;;;;;;34.78;22.97;99286.81;5134288;27;42788;-87
2023/05/28 08:23:23;;;;;;;6.43;3.50;;;;;;;35.22;23.13;99293.53;5116913;27;40941;-80
2023/05/28 08:25:52;;;;;;;7.50;4.07;;;;;;;35.15;23.94;99270.81;5117484;27;38725;-78
2023/05/28 08:28:27;;;;;;;6.47;4.13;;;;;;;34.97;23.04;99278.41;5116448;27;41288;-79
2023/05/28 08:30:56;;;;;;;7.73;4.10;;;;;;;34.79;23.71;99273.91;5118479;27;20690;-81
2023/05/28 08:33:35;;;;;;;6.57;4.00;;;;;;;34.82;24.17;99251.41;5133494;27;42638;-84
2023/05/28 08:36:03;;;;;;;5.53;3.90;;;;;;;35.49;22.61;99273.69;5117586;27;39990;-82
2023/05/28 08:38:32;;;;;;;5.40;4.03;;;;;;;36.24;22.74;99270.59;5116663;27;40628;-81
2023/05/28 08:41:02;;;;;;;5.22;3.97;;;;;;;36.94;21.47;99278.25;5117437;27;42812;-81
2023/05/28 08:43:31;;;;;;;5.45;4.18;;;;;;;36.89;20.97;99276.25;5133686;27;42935;-86
2023/05/28 08:45:59;;;;;;;7.03;4.15;;;;;;;36.25;21.55;99266.75;5117258;27;38921;-84
2023/05/28 08:48:42;;;;;;;5.88;3.90;;;;;;;35.33;22.72;99263.47;5133347;27;41864;-84
2023/05/28 08:51:11;;;;;;;5.57;4.22;;;;;;;34.45;24.16;99248.94;5134287;27;43734;-86
2023/05/28 08:53:46;;;;;;;8.30;4.37;;;;;;;33.94;24.00;99246.03;5133421;27;42250;-80
2023/05/28 08:56:17;;;;;;;7.83;4.07;;;;;;;33.25;24.84;99242.88;5117892;27;40068;-85
2023/05/28 08:58:47;;;;;;;6.80;4.00;;;;;;;32.70;23.90;99244.78;5134492;27;41819;-83
2023/05/28 09:01:15;;;;;;;7.47;5.10;;;;;;;32.20;25.95;99222.97;5117802;27;42985;-82
2023/05/28 09:03:48;;;;;;;8.27;4.90;;;;;;;32.08;26.53;99230.22;5134075;27;42794;-85
2023/05/28 09:06:39;;;;;;;6.67;4.27;;;;;;;31.98;25.64;99232.66;5141807;27;40088;-81
2023/05/28 09:09:11;;;;;;;6.80;3.70;;;;;;;31.82;26.29;99227.72;5134840;27;42109;-80
2023/05/28 09:11:48;;;;;;;5.90;4.00;;;;;;;31.54;26.00;99228.13;5131827;27;43638;-81
2023/05/28 09:14:19;;;;;;;7.03;4.43;;;;;;;31.51;26.62;99229.41;5133985;27;42597;-83
2023/05/28 09:16:50;;;;;;;9.80;4.10;;;;;;;31.37;26.31;99194.97;5117997;27;39923;-82
2023/05/28 09:19:21;;;;;;;5.70;3.90;;;;;;;31.60;27.17;99211.66;5131401;27;41656;-85
2023/05/28 09:21:53;;;;;;;5.90;3.77;;;;;;;31.56;27.46;99187.66;5117097;27;41853;-83
2023/05/28 09:24:24;;;;;;;5.10;3.57;;;;;;;31.61;27.70;99188.69;5116431;27;41062;-79
2023/05/28 09:27:22;;;;;;;7.47;4.23;;;;;;;31.78;26.65;99203.50;5114933;27;38691;-82
2023/05/28 09:29:52;;;;;;;8.20;4.17;;;;;;;32.43;26.31;99189.41;5116735;27;41855;-83
2023/05/28 09:32:21;;;;;;;7.97;3.87;;;;;;;33.37;23.96;99196.22;5117193;27;42755;-82
2023/05/28 09:34:51;;;;;;;8.33;4.27;;;;;;;33.64;24.70;99200.19;5120065;27;41332;-78
2023/05/28 09:37:19;;;;;;;5.40;3.90;;;;;;;33.58;24.28;99203.91;5155443;27;39800;-79
2023/05/28 09:39:46;;;;;;;7.60;4.23;;;;;;;33.67;25.55;99199.72;5155990;27;41598;-79
2023/05/28 09:42:14;;;;;;;8.70;4.20;;;;;;;34.06;25.89;99190.00;5120368;27;41428;-78
2023/05/28 09:44:43;;;;;;;9.93;4.10;;;;;;;34.88;23.14;99217.38;5119943;27;41415;-81
2023/05/28 09:47:16;;;;;;;7.47;4.70;;;;;;;35.50;21.38;99214.75;5120148;27;38952;-78
2023/05/28 09:49:45;;;;;;;6.63;3.95;;;;;;;36.67;21.48;99211.91;5157074;27;41815;-79
2023/05/28 09:52:18;;;;;;;7.32;3.97;;;;;;;37.78;20.94;99189.38;5155404;27;43890;-78
2023/05/28 09:54:51;;;;;;;6.13;4.10;;;;;;;38.52;19.93;99234.44;5152964;27;42272;-81
2023/05/28 09:57:23;;;;;;;5.32;3.72;;;;;;;37.90;18.89;99235.09;5138157;27;40070;-82
2023/05/28 09:59:55;;;;;;;8.27;4.47;;;;;;;36.75;20.42;99224.44;5153509;27;41740;-78
2023/05/28 10:02:33;;;;;;;5.33;4.03;;;;;;;35.58;21.79;99206.09;5137614;27;41705;-80
2023/05/28 10:05:04;;;;;;;5.70;4.43;;;;;;;35.08;22.93;99205.97;5138095;27;41199;-81
2023/05/28 10:07:32;;;;;;;7.67;4.00;;;;;;;34.62;22.62;99215.19;5137916;27;40160;-82
2023/05/28 10:10:02;;;;;;;7.33;4.50;;;;;;;34.29;23.36;99200.16;5137916;27;42821;-81
2023/05/28 10:12:32;;;;;;;8.80;4.27;;;;;;;34.23;22.89;99204.69;5153545;27;42685;-79
2023/05/28 10:15:00;;;;;;;5.60;4.00;;;;;;;34.44;21.67;99208.75;5155914;27;42156;-81
2023/05/28 10:17:31;;;;;;;7.57;3.87;;;;;;;34.71;20.52;99227.47;5120264;27;38965;-80
2023/05/28 10:19:58;;;;;;;5.80;3.97;;;;;;;35.35;19.35;99231.00;5153255;27;41971;-83
2023/05/28 10:22:26;;;;;;;5.80;4.63;;;;;;;35.46;21.31;99200.66;5120066;27;41641;-82
2023/05/28 10:24:54;;;;;;;5.78;5.18;;;;;;;35.50;20.92;99206.47;5155941;27;43231;-81
2023/05/28 10:27:30;;;;;;;7.63;5.68;;;;;;;35.38;19.59;99227.75;5137511;27;39735;-85
2023/05/28 10:29:58;;;;;;;5.60;4.63;;;;;;;35.14;20.07;99225.06;5134491;27;42544;-78
2023/05/28 10:32:25;;;;;;;4.43;3.83;;;;;;;35.02;22.16;99193.16;5137246;27;42486;-84
2023/05/28 10:35:02;;;;;;;7.77;4.07;;;;;;;35.05;21.52;99204.53;5154157;27;43252;-87
2023/05/28 10:37:30;;;;;;;5.83;3.93;;;;;;;35.13;22.17;99190.34;5133960;27;39819;-80
2023/05/28 10:40:00;;;;;;;5.33;4.00;;;;;;;35.07;20.42;99190.53;5136403;27;42443;-83
2023/05/28 10:42:28;;;;;;;6.13;3.97;;;;;;;35.05;21.80;99196.28;5135942;27;41663;-79
2023/05/28 10:45:10;;;;;;;5.10;3.83;;;;;;;34.84;20.81;99202.47;5135779;27;42168;-80
2023/05/28 10:47:39;;;;;;;6.80;4.57;;;;;;;34.41;21.40;99202.88;5119272;27;39941;-80
2023/05/28 10:50:20;;;;;;;6.90;4.40;;;;;;;34.13;21.89;99192.59;5136098;27;42274;-81
2023/05/28 10:53:05;;;;;;;5.53;3.83;;;;;;;33.87;24.02;99175.53;5135527;27;43164;-79
2023/05/28 10:55:50;;;;;;;5.60;3.60;;;;;;;33.75;22.30;99185.69;5136842;27;42281;-83
2023/05/28 10:58:25;;;;;;;5.63;3.63;;;;;;;33.75;21.08;99196.69;5156780;27;40744;-83
2023/05/28 11:00:53;;;;;;;7.90;4.40;;;;;;;33.83;22.11;99182.59;5136194;27;40810;-80
2023/05/28 11:03:39;;;;;;;6.50;4.40;;;;;;;33.88;23.07;99171.69;5154869;27;42813;-82
2023/05/28 11:06:10;;;;;;;8.10;4.23;;;;;;;33.84;21.46;99192.50;5119432;27;41301;-81
2023/05/28 11:08:41;;;;;;;5.73;4.20;;;;;;;33.92;23.86;99174.81;5136109;27;39875;-80
2023/05/28 11:11:11;;;;;;;7.20;3.90;;;;;;;33.93;23.75;99150.91;5133531;27;41919;-82
2023/05/28 11:13:39;;;;;;;4.77;3.73;;;;;;;33.85;22.99;99166.69;5154438;27;42586;-80
2023/05/28 11:16:08;;;;;;;6.73;4.43;;;;;;;33.61;22.43;99158.66;5119312;27;42270;-80
2023/05/28 11:18:36;;;;;;;4.90;3.67;;;;;;;33.51;25.27;99135.31;5136522;27;38778;-79
2023/05/28 11:21:07;;;;;;;5.83;4.40;;;;;;;33.51;23.43;99159.22;5119779;27;42243;-78
2023/05/28 11:23:37;;;;;;;6.40;4.20;;;;;;;33.37;22.92;99160.53;5152679;27;43079;-81
2023/05/28 11:26:05;;;;;;;8.93;4.30;;;;;;;33.40;23.72;99146.28;5135071;27;41851;-79
2023/05/28 11:28:33;;;;;;;6.30;3.97;;;;;;;33.23;23.69;99145.28;5117893;27;40017;-78
2023/05/28 11:31:01;;;;;;;8.40;4.90;;;;;;;33.28;22.17;99171.00;5118292;27;40893;-79
2023/05/28 11:33:29;;;;;;;7.87;3.97;;;;;;;33.35;25.25;99132.47;5135273;27;43750;-82
2023/05/28 11:36:01;;;;;;;8.23;4.27;;;;;;;33.52;23.41;99141.66;5154114;27;42929;-77
2023/05/28 11:38:28;;;;;;;7.87;4.37;;;;;;;33.78;22.49;99157.72;5134757;27;39640;-82
2023/05/28 11:41:05;;;;;;;6.67;4.17;;;;;;;33.97;23.91;99133.72;5154079;27;41867;-84
2023/05/28 11:43:33;;;;;;;5.67;4.23;;;;;;;34.39;23.00;99147.28;5119080;27;41706;-82
2023/05/28 11:46:02;;;;;;;8.73;4.27;;;;;;;34.99;23.79;99136.69;5135077;27;41681;-80
2023/05/28 11:48:30;;;;;;;7.37;4.83;;;;;;;35.97;22.32;99130.66;5135228;27;39312;-79